createdAt,value
2022-12-14T00:01:59.337Z,9.40
2022-12-14T00:04:27.452Z,8.00
2022-12-14T00:06:55.504Z,9.10
2022-12-14T00:09:23.747Z,8.60
2022-12-14T00:11:51.783Z,8.60
2022-12-14T00:14:19.865Z,8.80
2022-12-14T00:16:48.512Z,8.30
2022-12-14T00:19:16.561Z,8.30
2022-12-14T00:21:46.017Z,8.20
2022-12-14T00:24:14.244Z,8.30
2022-12-14T00:26:42.574Z,8.50
2022-12-14T00:29:10.787Z,8.90
2022-12-14T00:31:39.075Z,8.70
2022-12-14T00:34:07.345Z,8.70
2022-12-14T00:36:37.821Z,8.70
2022-12-14T00:39:05.954Z,8.20
2022-12-14T00:41:34.082Z,7.90
2022-12-14T00:44:02.241Z,9.50
2022-12-14T00:46:30.313Z,9.50
2022-12-14T00:48:58.779Z,7.80
2022-12-14T00:51:26.914Z,8.80
2022-12-14T00:53:55.120Z,8.70
2022-12-14T00:56:23.272Z,9.60
2022-12-14T00:58:54.534Z,7.40
2022-12-14T01:01:22.706Z,7.80
2022-12-14T01:03:51.213Z,8.00
2022-12-14T01:06:22.803Z,8.50
2022-12-14T01:08:50.837Z,8.00
2022-12-14T01:11:19.058Z,8.70
2022-12-14T01:13:49.326Z,8.90
2022-12-14T01:16:18.406Z,8.70
2022-12-14T01:18:47.365Z,8.80
2022-12-14T01:21:22.759Z,9.10
2022-12-14T01:23:58.950Z,9.60
2022-12-14T01:26:30.380Z,10.40
2022-12-14T01:28:59.660Z,8.30
2022-12-14T01:31:31.349Z,8.70
2022-12-14T01:34:00.103Z,9.50
2022-12-14T01:36:32.387Z,9.70
2022-12-14T01:39:06.926Z,8.40
2022-12-14T01:41:49.588Z,7.70
2022-12-14T01:44:18.050Z,7.60
2022-12-14T01:47:12.962Z,8.60
2022-12-14T01:49:49.360Z,7.80
2022-12-14T01:52:44.137Z,10.10
2022-12-14T01:55:32.188Z,7.20
2022-12-14T01:58:22.092Z,7.90
2022-12-14T02:00:54.993Z,8.70
2022-12-14T02:03:35.568Z,8.40
2022-12-14T02:06:15.859Z,8.80
2022-12-14T02:08:45.847Z,8.70
2022-12-14T02:11:14.060Z,8.20
2022-12-14T02:13:43.149Z,8.10
2022-12-14T02:16:11.396Z,8.50
2022-12-14T02:18:39.826Z,8.30
2022-12-14T02:21:36.913Z,8.30
2022-12-14T02:24:22.229Z,8.40
2022-12-14T02:27:15.453Z,8.50
2022-12-14T02:30:07.994Z,8.00
2022-12-14T02:33:12.874Z,8.20
2022-12-14T02:36:00.016Z,9.00
2022-12-14T02:39:00.239Z,8.80
2022-12-14T02:41:43.491Z,7.50
2022-12-14T02:44:23.135Z,8.50
2022-12-14T02:46:57.108Z,7.50
2022-12-14T02:49:50.543Z,8.80
2022-12-14T02:52:55.856Z,8.70
2022-12-14T02:55:31.688Z,8.20
2022-12-14T02:58:27.227Z,7.90
2022-12-14T03:00:56.985Z,7.50
2022-12-14T03:03:25.936Z,7.80
2022-12-14T03:06:03.972Z,8.30
2022-12-14T03:08:35.630Z,8.20
2022-12-14T03:11:06.994Z,7.60
2022-12-14T03:13:38.328Z,7.70
2022-12-14T03:16:17.166Z,8.20
2022-12-14T03:19:37.746Z,7.00
2022-12-14T03:22:17.540Z,7.60
2022-12-14T03:24:52.338Z,8.30
2022-12-14T03:27:27.583Z,8.20
2022-12-14T03:30:27.117Z,8.20
2022-12-14T03:33:13.681Z,7.30
2022-12-14T03:35:53.735Z,7.20
2022-12-14T03:38:44.187Z,7.10
2022-12-14T03:41:48.751Z,7.40
2022-12-14T03:44:41.885Z,7.70
2022-12-14T03:47:23.623Z,7.80
2022-12-14T03:50:32.000Z,7.60
2022-12-14T03:53:22.601Z,7.50
2022-12-14T03:56:29.451Z,7.30
2022-12-14T03:59:17.613Z,7.50
2022-12-14T04:02:09.380Z,7.40
2022-12-14T04:04:57.904Z,8.50
2022-12-14T04:07:38.319Z,7.40
2022-12-14T04:10:41.649Z,7.50
2022-12-14T04:13:36.905Z,8.60
2022-12-14T04:16:31.553Z,9.90
2022-12-14T04:19:05.422Z,10.40
2022-12-14T04:21:48.141Z,9.90
2022-12-14T04:24:50.511Z,10.40
2022-12-14T04:27:58.956Z,11.10
2022-12-14T04:30:32.816Z,8.30
2022-12-14T04:33:27.715Z,10.50
2022-12-14T04:36:01.958Z,10.90
2022-12-14T04:38:37.345Z,8.20
2022-12-14T04:41:15.718Z,9.60
2022-12-14T04:43:49.023Z,12.10
2022-12-14T04:46:23.196Z,11.70
2022-12-14T04:49:03.147Z,11.00
2022-12-14T04:51:49.830Z,11.40
2022-12-14T04:54:33.184Z,12.90
2022-12-14T04:57:17.359Z,11.50
2022-12-14T04:59:49.051Z,9.30
2022-12-14T05:02:49.773Z,13.10
2022-12-14T05:05:26.323Z,11.10
2022-12-14T05:08:02.461Z,8.90
2022-12-14T05:10:48.439Z,17.00
2022-12-14T05:13:30.891Z,13.80
2022-12-14T05:15:59.974Z,12.30
2022-12-14T05:18:28.254Z,13.10
2022-12-14T05:20:56.407Z,11.40
2022-12-14T05:23:24.768Z,12.50
2022-12-14T05:25:53.367Z,9.80
2022-12-14T05:28:21.644Z,10.40
2022-12-14T05:30:49.862Z,10.20
2022-12-14T05:33:20.350Z,9.70
2022-12-14T05:35:48.440Z,10.20
2022-12-14T05:38:16.800Z,9.50
2022-12-14T05:40:44.830Z,10.90
2022-12-14T05:43:13.408Z,18.20
2022-12-14T05:45:41.529Z,16.70
2022-12-14T05:48:09.905Z,16.20
2022-12-14T05:50:38.134Z,13.10
2022-12-14T05:53:06.193Z,14.20
2022-12-14T05:55:35.040Z,23.80
2022-12-14T05:58:03.215Z,23.90
2022-12-14T06:00:31.391Z,19.30
2022-12-14T06:03:00.046Z,29.00
2022-12-14T06:05:28.250Z,31.20
2022-12-14T06:07:56.530Z,38.00
2022-12-14T06:10:25.326Z,30.70
2022-12-14T06:12:54.306Z,28.70
2022-12-14T06:15:22.584Z,32.30
2022-12-14T06:17:50.656Z,34.30
2022-12-14T06:20:18.728Z,30.50
2022-12-14T06:22:47.928Z,31.30
2022-12-14T06:25:16.251Z,25.20
2022-12-14T06:27:44.478Z,34.30
2022-12-14T06:30:13.201Z,22.10
2022-12-14T06:32:41.363Z,27.20
2022-12-14T06:35:10.049Z,23.90
2022-12-14T06:37:38.200Z,31.00
2022-12-14T06:40:07.809Z,30.60
2022-12-14T06:42:35.939Z,26.30
2022-12-14T06:45:05.492Z,22.80
2022-12-14T06:47:34.685Z,22.00
2022-12-14T06:50:02.872Z,21.80
2022-12-14T06:52:31.754Z,29.30
2022-12-14T06:54:59.922Z,24.50
2022-12-14T06:57:28.046Z,24.40
2022-12-14T06:59:56.217Z,23.10
2022-12-14T07:02:24.411Z,22.70
2022-12-14T07:04:52.828Z,25.10
2022-12-14T07:07:20.935Z,27.70
2022-12-14T07:09:49.115Z,22.60
2022-12-14T07:12:17.495Z,20.30
2022-12-14T07:14:45.692Z,18.10
2022-12-14T07:17:13.761Z,24.30
2022-12-14T07:19:44.170Z,21.10
2022-12-14T07:22:17.356Z,20.80
2022-12-14T07:24:46.259Z,19.50
2022-12-14T07:27:14.479Z,18.10
2022-12-14T07:29:42.567Z,19.40
2022-12-14T07:32:10.935Z,19.80
2022-12-14T07:34:39.107Z,16.70
2022-12-14T07:37:07.387Z,14.90
2022-12-14T07:39:35.644Z,17.60
2022-12-14T07:42:03.935Z,13.80
2022-12-14T07:44:32.415Z,16.20
2022-12-14T07:47:00.691Z,14.20
2022-12-14T07:49:28.869Z,15.80
2022-12-14T07:51:56.976Z,16.50
2022-12-14T07:54:26.442Z,16.20
2022-12-14T07:56:54.577Z,14.30
2022-12-14T07:59:22.795Z,17.10
2022-12-14T08:01:52.629Z,14.80
2022-12-14T08:04:21.290Z,13.70
2022-12-14T08:06:49.774Z,13.90
2022-12-14T08:09:20.140Z,13.10
2022-12-14T08:11:48.480Z,14.20
2022-12-14T08:14:18.964Z,12.90
2022-12-14T08:16:48.613Z,14.90
2022-12-14T08:19:19.295Z,14.90
2022-12-14T08:21:47.726Z,14.10
2022-12-14T08:24:17.178Z,13.00
2022-12-14T08:26:48.939Z,14.50
2022-12-14T08:29:18.930Z,13.60
2022-12-14T08:31:47.221Z,14.30
2022-12-14T08:34:22.684Z,13.30
2022-12-14T08:36:50.962Z,11.90
2022-12-14T08:39:19.192Z,13.20
2022-12-14T08:41:47.285Z,11.70
2022-12-14T08:44:17.572Z,13.10
2022-12-14T08:46:45.882Z,12.40
2022-12-14T08:49:14.050Z,13.70
2022-12-14T08:51:42.309Z,12.20
2022-12-14T08:54:10.959Z,13.30
2022-12-14T08:56:39.007Z,13.60
2022-12-14T08:59:07.585Z,13.60
2022-12-14T09:01:35.901Z,11.60
2022-12-14T09:04:06.589Z,11.90
2022-12-14T09:06:38.453Z,13.00
2022-12-14T09:09:15.724Z,12.40
2022-12-14T09:11:45.653Z,12.60
2022-12-14T09:14:13.861Z,11.00
2022-12-14T09:16:42.257Z,13.40
2022-12-14T09:19:12.762Z,11.70
2022-12-14T09:21:41.458Z,11.90
2022-12-14T09:24:10.032Z,10.30
2022-12-14T09:26:38.323Z,14.00
2022-12-14T09:29:06.730Z,11.70
2022-12-14T09:31:34.933Z,11.60
2022-12-14T09:34:03.970Z,10.50
2022-12-14T09:36:32.289Z,10.70
2022-12-14T09:39:00.482Z,12.10
2022-12-14T09:41:34.652Z,10.60
2022-12-14T09:44:18.544Z,12.40
2022-12-14T09:47:19.367Z,10.80
2022-12-14T09:50:09.960Z,11.20
2022-12-14T09:52:48.814Z,10.60
2022-12-14T09:55:42.208Z,9.70
2022-12-14T09:58:20.638Z,10.10
2022-12-14T10:01:23.031Z,10.50
2022-12-14T10:04:10.288Z,11.30
2022-12-14T10:07:05.751Z,10.10
2022-12-14T10:10:13.663Z,11.60
2022-12-14T10:12:59.462Z,9.30
2022-12-14T10:15:55.504Z,8.60
2022-12-14T10:19:01.458Z,9.40
2022-12-14T10:21:48.896Z,10.40
2022-12-14T10:24:30.658Z,11.70
2022-12-14T10:30:02.584Z,9.90
2022-12-14T10:32:39.281Z,10.00
2022-12-14T10:35:34.283Z,10.90
2022-12-14T10:38:22.869Z,9.80
2022-12-14T10:40:55.247Z,10.80
2022-12-14T10:43:44.674Z,9.90
2022-12-14T10:46:59.574Z,9.90
2022-12-14T10:49:33.519Z,10.80
2022-12-14T10:52:17.833Z,10.70
2022-12-14T10:55:31.299Z,9.50
2022-12-14T10:58:00.865Z,10.20
2022-12-14T11:00:29.159Z,9.20
2022-12-14T11:02:58.624Z,10.70
2022-12-14T11:05:51.316Z,9.60
2022-12-14T11:08:41.420Z,9.50
2022-12-14T11:11:25.183Z,10.90
2022-12-14T11:14:15.706Z,9.80
2022-12-14T11:16:44.000Z,10.50
2022-12-14T11:19:19.232Z,9.20
2022-12-14T11:21:50.069Z,9.50
2022-12-14T11:24:28.154Z,12.10
2022-12-14T11:27:03.722Z,9.00
2022-12-14T11:29:38.152Z,10.00
2022-12-14T11:32:15.256Z,9.40
2022-12-14T11:34:43.634Z,9.60
2022-12-14T11:37:27.536Z,9.40
2022-12-14T11:40:00.302Z,11.30
2022-12-14T11:42:30.020Z,10.60
2022-12-14T11:45:26.556Z,9.50
2022-12-14T11:48:16.206Z,8.60
2022-12-14T11:50:47.433Z,10.50
2022-12-14T11:53:21.248Z,9.30
2022-12-14T11:55:59.980Z,10.00
2022-12-14T11:58:33.923Z,10.90
2022-12-14T12:01:18.761Z,10.90
2022-12-14T12:03:55.282Z,10.60
2022-12-14T12:06:29.998Z,10.70
2022-12-14T12:09:08.764Z,10.50
2022-12-14T12:11:37.236Z,10.20
2022-12-14T12:14:39.400Z,10.90
2022-12-14T12:19:52.987Z,10.80
2022-12-14T12:22:21.745Z,11.40
2022-12-14T12:25:24.366Z,10.50
2022-12-14T12:27:56.272Z,9.30
2022-12-14T12:30:31.267Z,8.80
2022-12-14T12:33:17.711Z,10.90
2022-12-14T12:35:59.008Z,9.70
2022-12-14T12:39:06.735Z,9.10
2022-12-14T12:42:13.429Z,9.00
2022-12-14T12:45:39.615Z,11.00
2022-12-14T12:48:26.241Z,9.60
2022-12-14T12:51:04.880Z,9.70
2022-12-14T12:53:47.944Z,10.60
2022-12-14T12:56:27.203Z,8.50
2022-12-14T12:58:56.684Z,8.60
2022-12-14T13:01:27.171Z,9.40
2022-12-14T13:04:05.739Z,9.10
2022-12-14T13:06:44.533Z,8.50
2022-12-14T13:09:30.824Z,8.20
2022-12-14T13:12:01.336Z,8.00
2022-12-14T13:14:38.342Z,8.90
2022-12-14T13:17:25.198Z,10.30
2022-12-14T13:19:56.520Z,7.90
2022-12-14T13:22:35.829Z,9.10
2022-12-14T13:25:24.187Z,7.60
2022-12-14T13:28:13.091Z,7.50
2022-12-14T13:30:59.643Z,7.60
2022-12-14T13:34:25.016Z,9.10
2022-12-14T13:37:15.710Z,10.90
2022-12-14T13:40:17.222Z,15.80
2022-12-14T13:43:30.391Z,13.90
2022-12-14T13:46:11.606Z,16.80
2022-12-14T13:48:41.559Z,15.50
2022-12-14T13:51:29.223Z,13.00
2022-12-14T13:54:02.906Z,19.10
2022-12-14T13:56:38.164Z,16.20
2022-12-14T13:59:27.025Z,16.20
2022-12-14T14:01:58.353Z,16.60
2022-12-14T14:04:31.525Z,18.50
2022-12-14T14:07:24.642Z,24.60
2022-12-14T14:09:55.658Z,20.50
2022-12-14T14:12:23.833Z,19.80
2022-12-14T14:15:11.568Z,21.80
2022-12-14T14:17:44.554Z,23.30
2022-12-14T14:20:36.172Z,26.80
2022-12-14T14:23:16.543Z,24.30
2022-12-14T14:26:11.333Z,22.50
2022-12-14T14:28:39.922Z,26.70
2022-12-14T14:31:08.489Z,27.10
2022-12-14T14:33:49.614Z,28.30
2022-12-14T14:36:37.207Z,25.60
2022-12-14T14:39:54.890Z,22.90
2022-12-14T14:42:22.908Z,27.60
2022-12-14T14:45:00.200Z,23.70
2022-12-14T14:47:40.460Z,24.80
2022-12-14T14:50:15.089Z,29.60
2022-12-14T14:52:43.261Z,25.90
2022-12-14T14:58:29.945Z,22.80
2022-12-14T15:01:06.724Z,22.00
2022-12-14T15:03:45.219Z,29.60
2022-12-14T15:06:18.676Z,22.80
2022-12-14T15:08:56.783Z,24.30
2022-12-14T15:11:29.800Z,25.50
2022-12-14T15:14:06.860Z,24.70
2022-12-14T15:16:45.784Z,24.60
2022-12-14T15:19:36.040Z,26.70
2022-12-14T15:22:15.614Z,23.40
2022-12-14T15:24:47.373Z,24.80
2022-12-14T15:27:23.375Z,25.50
2022-12-14T15:29:52.655Z,21.30
2022-12-14T15:32:24.271Z,22.10
2022-12-14T15:34:58.601Z,21.40
2022-12-14T15:37:44.859Z,19.40
2022-12-14T15:40:22.589Z,19.00
2022-12-14T15:42:57.754Z,17.10
2022-12-14T15:45:33.484Z,21.10
2022-12-14T15:48:31.010Z,20.10
2022-12-14T15:51:03.911Z,19.20
2022-12-14T15:53:50.380Z,15.70
2022-12-14T15:56:37.107Z,20.20
2022-12-14T15:59:22.338Z,15.00
2022-12-14T16:02:15.161Z,18.50
2022-12-14T16:04:45.365Z,14.40
2022-12-14T16:07:31.369Z,17.50
2022-12-14T16:10:02.733Z,14.90
2022-12-14T16:12:45.414Z,13.20
2022-12-14T16:15:27.243Z,14.10
2022-12-14T16:18:02.726Z,15.10
2022-12-14T16:20:36.287Z,12.30
2022-12-14T16:23:37.895Z,15.00
2022-12-14T16:26:16.256Z,12.40
2022-12-14T16:28:44.533Z,14.50
2022-12-14T16:31:24.666Z,12.60
2022-12-14T16:34:15.903Z,15.60
2022-12-14T16:37:08.155Z,14.60
2022-12-14T16:39:46.350Z,12.90
2022-12-14T16:42:26.817Z,12.00
2022-12-14T16:44:55.100Z,14.60
2022-12-14T16:47:35.146Z,12.90
2022-12-14T16:53:21.871Z,12.70
2022-12-14T16:56:32.852Z,10.90
2022-12-14T16:59:19.970Z,12.20
2022-12-14T17:01:49.970Z,11.70
2022-12-14T17:04:20.993Z,11.30
2022-12-14T17:06:55.571Z,10.80
2022-12-14T17:09:30.178Z,10.80
2022-12-14T17:12:01.120Z,13.40
2022-12-14T17:14:29.491Z,12.30
2022-12-14T17:17:01.786Z,9.90
2022-12-14T17:19:33.766Z,11.50
2022-12-14T17:22:06.810Z,12.40
2022-12-14T17:24:37.449Z,12.00
2022-12-14T17:27:05.651Z,12.90
2022-12-14T17:29:33.997Z,10.60
2022-12-14T17:32:02.888Z,10.10
2022-12-14T17:34:32.262Z,9.10
2022-12-14T17:37:00.569Z,10.80
2022-12-14T17:39:35.570Z,10.80
2022-12-14T17:42:06.578Z,8.70
2022-12-14T17:44:34.711Z,11.70
2022-12-14T17:47:02.820Z,9.60
2022-12-14T17:49:34.412Z,8.80
2022-12-14T17:52:07.348Z,9.50
2022-12-14T17:54:35.460Z,9.00
2022-12-14T17:57:07.461Z,17.00
2022-12-14T17:59:35.678Z,13.90
2022-12-14T18:02:03.834Z,11.00
2022-12-14T18:04:32.677Z,8.40
2022-12-14T18:07:01.186Z,8.30
2022-12-14T18:09:29.360Z,8.20
2022-12-14T18:12:22.282Z,8.50
2022-12-14T18:14:46.277Z,7.80
2022-12-14T18:17:16.208Z,8.80
2022-12-14T18:19:44.960Z,10.70
2022-12-14T18:22:15.933Z,7.70
2022-12-14T18:24:45.864Z,9.70
2022-12-14T18:27:17.213Z,15.00
2022-12-14T18:29:45.523Z,7.20
2022-12-14T18:32:14.861Z,10.40
2022-12-14T18:34:43.325Z,7.50
2022-12-14T18:37:11.568Z,8.70
2022-12-14T18:39:39.910Z,8.50
2022-12-14T18:42:09.215Z,10.80
2022-12-14T18:44:37.973Z,8.00
2022-12-14T18:47:33.583Z,9.80
2022-12-14T18:49:54.248Z,10.50
2022-12-14T18:52:22.493Z,8.20
2022-12-14T18:54:54.223Z,9.60
2022-12-14T18:59:50.500Z,6.60
2022-12-14T19:02:19.342Z,10.10
2022-12-14T19:04:51.585Z,9.50
2022-12-14T19:09:47.900Z,9.70
2022-12-14T19:12:16.074Z,9.10
2022-12-14T19:14:44.255Z,11.10
2022-12-14T19:17:17.660Z,10.70
2022-12-14T19:19:45.929Z,12.00
2022-12-14T19:22:14.098Z,8.60
2022-12-14T19:24:43.658Z,8.10
2022-12-14T19:27:15.462Z,9.90
2022-12-14T19:29:43.841Z,8.30
2022-12-14T19:32:12.267Z,8.50
2022-12-14T19:34:40.560Z,7.50
2022-12-14T19:37:09.051Z,10.60
2022-12-14T19:39:37.359Z,10.40
2022-12-14T19:42:06.655Z,8.60
2022-12-14T19:44:35.075Z,7.70
2022-12-14T19:47:04.189Z,8.20
2022-12-14T19:49:34.166Z,8.90
2022-12-14T19:52:03.342Z,9.50
2022-12-14T19:54:36.131Z,7.10
2022-12-14T19:57:04.822Z,8.30
2022-12-14T19:59:33.043Z,9.70
2022-12-14T20:02:02.567Z,8.40
2022-12-14T20:04:31.603Z,9.30
2022-12-14T20:07:01.169Z,7.50
2022-12-14T20:09:30.289Z,8.60
2022-12-14T20:12:02.652Z,10.80
2022-12-14T20:14:31.977Z,10.20
2022-12-14T20:17:00.077Z,9.00
2022-12-14T20:19:29.034Z,10.00
2022-12-14T20:21:58.288Z,9.40
2022-12-14T20:24:26.691Z,8.30
2022-12-14T20:26:56.163Z,7.90
2022-12-14T20:29:24.601Z,7.90
2022-12-14T20:31:55.463Z,9.10
2022-12-14T20:34:23.819Z,8.70
2022-12-14T20:36:53.113Z,8.20
2022-12-14T20:39:21.512Z,7.90
2022-12-14T20:41:51.735Z,9.10
2022-12-14T20:44:20.794Z,9.60
2022-12-14T20:46:51.928Z,8.20
2022-12-14T20:49:24.472Z,6.90
2022-12-14T20:51:53.228Z,8.40
2022-12-14T20:54:22.624Z,6.80
2022-12-14T20:56:50.798Z,7.30
2022-12-14T20:59:19.218Z,7.90
2022-12-14T21:01:55.522Z,7.90
2022-12-14T21:04:27.400Z,7.30
2022-12-14T21:06:56.477Z,7.60
2022-12-14T21:09:25.290Z,8.60
2022-12-14T21:12:12.928Z,6.60
2022-12-14T21:14:42.819Z,8.40
2022-12-14T21:17:11.128Z,7.90
2022-12-14T21:19:40.516Z,7.10
2022-12-14T21:22:13.983Z,7.90
2022-12-14T21:25:02.290Z,6.50
2022-12-14T21:27:31.001Z,8.40
2022-12-14T21:30:00.659Z,6.80
2022-12-14T21:32:29.313Z,7.40
2022-12-14T21:34:57.920Z,6.20
2022-12-14T21:37:26.607Z,7.00
2022-12-14T21:39:55.753Z,6.50
2022-12-14T21:42:25.152Z,7.40
2022-12-14T21:44:55.397Z,6.90
2022-12-14T21:47:29.699Z,6.50
2022-12-14T21:49:58.229Z,6.70
2022-12-14T21:52:28.053Z,8.30
2022-12-14T21:54:58.784Z,6.70
2022-12-14T21:57:50.590Z,7.00
2022-12-14T22:00:19.908Z,5.80
2022-12-14T22:02:48.435Z,6.50
2022-12-14T22:05:17.580Z,5.40
2022-12-14T22:07:46.829Z,7.60
2022-12-14T22:10:16.762Z,6.70
2022-12-14T22:12:48.256Z,7.30
2022-12-14T22:15:16.734Z,7.20
2022-12-14T22:17:44.808Z,8.10
2022-12-14T22:20:13.592Z,6.20
2022-12-14T22:22:41.667Z,6.70
2022-12-14T22:25:09.942Z,6.50
2022-12-14T22:27:38.233Z,7.30
2022-12-14T22:30:09.268Z,6.70
2022-12-14T22:32:37.810Z,7.00
2022-12-14T22:35:09.541Z,6.10
2022-12-14T22:37:37.884Z,7.40
2022-12-14T22:40:08.044Z,7.60
2022-12-14T22:42:36.275Z,6.40
2022-12-14T22:45:05.227Z,7.30
2022-12-14T22:47:33.309Z,6.40
2022-12-14T22:50:01.474Z,6.30
2022-12-14T22:52:29.588Z,6.00
2022-12-14T22:54:57.869Z,6.80
2022-12-14T22:57:26.760Z,6.50
2022-12-14T23:00:05.379Z,6.50
2022-12-14T23:02:33.845Z,7.00
2022-12-14T23:05:02.351Z,7.00
2022-12-14T23:07:30.424Z,6.30
2022-12-14T23:10:17.426Z,6.30
2022-12-14T23:13:04.984Z,5.80
2022-12-14T23:15:51.865Z,5.70
2022-12-14T23:18:38.541Z,5.70
2022-12-14T23:21:30.614Z,6.30
2022-12-14T23:24:17.413Z,5.80
2022-12-14T23:27:09.336Z,6.30
2022-12-14T23:29:56.807Z,5.60
2022-12-14T23:32:43.401Z,6.40
2022-12-14T23:35:30.156Z,5.70
2022-12-14T23:38:23.861Z,6.70
2022-12-14T23:41:11.193Z,5.90
2022-12-14T23:43:58.199Z,5.40
2022-12-14T23:46:44.959Z,5.60
2022-12-14T23:49:31.821Z,6.10
2022-12-14T23:52:18.699Z,6.40
2022-12-14T23:55:05.649Z,5.30
2022-12-14T23:57:52.560Z,5.70
